Time,TemperatureF,DewpointF,PressureIn,WindDirection,WindDirectionDegrees,WindSpeedMPH,WindSpeedGustMPH,Humidity,HourlyPrecipIn,Conditions,Clouds,dailyrainin,SoftwareType,DateUTC
2013-01-31 00:00:00,47.7,44.9,29.24,East,101,4.0,11.0,90,0.00,,,1.15,Wunderground v.1.15,2013-01-31 05:00:00,
2013-01-31 00:01:00,47.8,45.0,29.25,SE,141,4.0,7.0,90,0.00,,,1.15,Wunderground v.1.15,2013-01-31 05:01:00,
2013-01-31 00:03:00,47.8,45.0,29.26,SSE,153,5.0,7.0,90,0.00,,,0.00,Wunderground v.1.15,2013-01-31 05:03:00,
2013-01-31 00:05:00,47.8,45.0,29.26,South,175,5.0,7.0,90,0.00,,,0.00,Wunderground v.1.15,2013-01-31 05:05:00,
2013-01-31 00:06:00,47.8,45.0,29.26,SSW,211,5.0,7.0,90,0.00,,,0.00,Wunderground v.1.15,2013-01-31 05:06:00,
2013-01-31 00:11:00,47.8,45.0,29.28,WSW,244,5.0,14.0,90,0.00,,,0.00,Wunderground v.1.15,2013-01-31 05:11:00,
2013-01-31 00:17:00,47.9,44.8,29.28,SSE,155,5.0,14.0,89,0.00,,,0.00,Wunderground v.1.15,2013-01-31 05:17:00,
2013-01-31 00:23:00,47.9,44.8,29.27,NW,309,4.0,7.0,89,0.00,,,0.00,Wunderground v.1.15,2013-01-31 05:23:00,
2013-01-31 00:30:00,47.8,44.7,29.28,North,360,3.0,7.0,89,0.00,,,0.00,Wunderground v.1.15,2013-01-31 05:30:00,
2013-01-31 00:35:00,46.9,42.9,29.28,East,101,5.0,22.0,86,0.00,,,0.01,Wunderground v.1.15,2013-01-31 05:35:00,
2013-01-31 06:23:00,30.3,26.6,29.57,NNW,332,5.0,10.0,86,0.00,,,0.05,Wunderground v.1.15,2013-01-31 11:23:00,
2013-01-31 06:30:00,30.2,26.8,29.57,North,355,5.0,10.0,87,0.00,,,0.05,Wunderground v.1.15,2013-01-31 11:30:00,
2013-01-31 06:35:00,30.0,26.9,29.58,West,267,5.0,8.0,88,0.00,,,0.05,Wunderground v.1.15,2013-01-31 11:35:00,
2013-01-31 06:40:00,30.0,26.9,29.58,NNE,26,6.0,12.0,88,0.00,,,0.05,Wunderground v.1.15,2013-01-31 11:40:00,
2013-01-31 06:46:00,30.0,26.9,29.58,NNE,14,6.0,9.0,88,0.00,,,0.05,Wunderground v.1.15,2013-01-31 11:46:00,
2013-01-31 06:51:00,29.7,26.9,29.59,NW,325,6.0,9.0,89,0.00,,,0.05,Wunderground v.1.15,2013-01-31 11:51:00,
2013-01-31 06:56:00,29.3,26.7,29.59,West,269,6.0,7.0,90,0.00,,,0.05,Wunderground v.1.15,2013-01-31 11:56:00,
2013-01-31 07:01:00,29.0,26.7,29.60,WNW,300,6.0,6.0,91,0.00,,,0.05,Wunderground v.1.15,2013-01-31 12:01:00,
2013-01-31 07:06:00,28.9,26.6,29.59,North,360,4.0,6.0,91,0.00,,,0.06,Wunderground v.1.15,2013-01-31 12:06:00,
2013-01-31 07:11:00,28.9,26.6,29.60,North,355,4.0,6.0,91,0.00,,,0.06,Wunderground v.1.15,2013-01-31 12:11:00,
2013-01-31 07:16:00,29.0,26.7,29.60,NNW,348,5.0,8.0,91,0.00,,,0.06,Wunderground v.1.15,2013-01-31 12:16:00,
2013-01-31 07:21:00,29.1,26.8,29.61,South,175,4.0,7.0,91,0.00,,,0.06,Wunderground v.1.15,2013-01-31 12:21:00,
2013-01-31 07:26:00,28.7,26.7,29.61,South,178,5.0,11.0,92,0.00,,,0.06,Wunderground v.1.15,2013-01-31 12:26:00,
2013-01-31 07:31:00,28.3,26.5,29.61,SE,138,5.0,16.0,93,0.00,,,0.06,Wunderground v.1.15,2013-01-31 12:31:00,
2013-01-31 07:36:00,28.1,26.6,29.62,NNW,338,4.0,16.0,94,0.00,,,0.06,Wunderground v.1.15,2013-01-31 12:36:00,
2013-01-31 07:41:00,27.9,26.4,29.62,SW,229,4.0,16.0,94,0.00,,,0.07,Wunderground v.1.15,2013-01-31 12:41:00,
2013-01-31 07:46:00,27.8,26.3,29.62,NW,304,4.0,16.0,94,0.00,,,0.07,Wunderground v.1.15,2013-01-31 12:46:00,
2013-01-31 07:51:00,27.6,26.4,29.63,North,360,3.0,16.0,95,0.00,,,0.07,Wunderground v.1.15,2013-01-31 12:51:00,
2013-01-31 07:56:00,27.6,26.4,29.63,NNE,31,3.0,16.0,95,0.00,,,0.07,Wunderground v.1.15,2013-01-31 12:56:00,
2013-01-31 08:02:00,27.5,26.3,29.64,SW,232,3.0,5.0,95,0.00,,,0.08,Wunderground v.1.15,2013-01-31 13:02:00,
2013-01-31 08:07:00,27.4,25.9,29.65,North,355,3.0,6.0,94,0.00,,,0.08,Wunderground v.1.15,2013-01-31 13:07:00,
2013-01-31 08:12:00,27.3,25.8,29.65,NW,307,4.0,6.0,94,0.00,,,0.08,Wunderground v.1.15,2013-01-31 13:12:00,
2013-01-31 08:17:00,27.3,25.5,29.65,SE,144,4.0,11.0,93,0.00,,,0.08,Wunderground v.1.15,2013-01-31 13:17:00,
2013-01-31 08:22:00,27.3,25.3,29.65,SSW,196,4.0,4.0,92,0.00,,,0.08,Wunderground v.1.15,2013-01-31 13:22:00,
2013-01-31 08:27:00,27.2,24.9,29.66,WNW,296,4.0,11.0,91,0.00,,,0.08,Wunderground v.1.15,2013-01-31 13:27:00,
2013-01-31 08:32:00,27.0,24.5,29.66,NNW,342,6.0,8.0,90,0.00,,,0.08,Wunderground v.1.15,2013-01-31 13:32:00,
2013-01-31 08:37:00,27.0,24.2,29.67,NNW,330,6.0,14.0,89,0.00,,,0.08,Wunderground v.1.15,2013-01-31 13:37:00,
2013-01-31 08:42:00,26.9,24.1,29.67,West,269,5.0,14.0,89,0.00,,,0.08,Wunderground v.1.15,2013-01-31 13:42:00,
2013-01-31 08:47:00,26.9,24.1,29.67,NE,50,5.0,14.0,89,0.00,,,0.08,Wunderground v.1.15,2013-01-31 13:47:00,
2013-01-31 08:53:00,27.0,23.9,29.67,NNW,340,3.0,14.0,88,0.00,,,0.08,Wunderground v.1.15,2013-01-31 13:53:00,
2013-01-31 08:58:00,27.2,23.6,29.68,West,276,4.0,14.0,86,0.00,,,0.08,Wunderground v.1.15,2013-01-31 13:58:00,
2013-01-31 09:03:00,27.4,22.6,29.67,WNW,286,6.0,12.0,82,0.00,,,0.08,Wunderground v.1.15,2013-01-31 14:03:00,
2013-01-31 09:08:00,27.6,22.5,29.68,WNW,286,8.0,12.0,81,0.00,,,0.08,Wunderground v.1.15,2013-01-31 14:08:00,
2013-01-31 09:13:00,27.6,22.2,29.69,NNW,341,8.0,9.0,80,0.00,,,0.08,Wunderground v.1.15,2013-01-31 14:13:00,
2013-01-31 09:18:00,27.5,22.1,29.69,NW,311,8.0,12.0,80,0.00,,,0.08,Wunderground v.1.15,2013-01-31 14:18:00,
2013-01-31 09:25:00,27.4,21.7,29.70,NNW,335,6.0,9.0,79,0.00,,,0.08,Wunderground v.1.15,2013-01-31 14:25:00,
2013-01-31 09:31:00,27.3,21.3,29.71,South,186,7.0,7.0,78,0.00,,,0.08,Wunderground v.1.15,2013-01-31 14:31:00,
2013-01-31 09:36:00,26.8,22.0,29.71,WNW,303,8.0,18.0,82,0.00,,,0.08,Wunderground v.1.15,2013-01-31 14:36:00,
2013-01-31 09:41:00,26.2,22.0,29.71,North,355,7.0,18.0,84,0.00,,,0.08,Wunderground v.1.15,2013-01-31 14:41:00,
2013-01-31 09:46:00,25.8,21.9,29.71,NNW,327,5.0,18.0,85,0.00,,,0.08,Wunderground v.1.15,2013-01-31 14:46:00,
2013-01-31 09:51:00,25.4,21.8,29.72,SW,225,5.0,18.0,86,0.00,,,0.08,Wunderground v.1.15,2013-01-31 14:51:00,
2013-01-31 09:56:00,25.1,22.0,29.72,NNW,327,5.0,18.0,88,0.00,,,0.08,Wunderground v.1.15,2013-01-31 14:56:00,
2013-01-31 10:02:00,25.1,21.8,29.72,WSW,238,5.0,8.0,87,0.00,,,0.08,Wunderground v.1.15,2013-01-31 15:02:00,
2013-01-31 10:08:00,25.3,21.7,29.72,West,264,5.0,9.0,86,0.00,,,0.08,Wunderground v.1.15,2013-01-31 15:08:00,
2013-01-31 10:13:00,25.5,21.6,29.73,WSW,257,6.0,11.0,85,0.00,,,0.08,Wunderground v.1.15,2013-01-31 15:13:00,
2013-01-31 10:18:00,25.7,21.3,29.73,North,360,5.0,11.0,83,0.00,,,0.08,Wunderground v.1.15,2013-01-31 15:18:00,
2013-01-31 10:23:00,25.9,21.2,29.73,NNW,342,5.0,10.0,82,0.00,,,0.08,Wunderground v.1.15,2013-01-31 15:23:00,
2013-01-31 10:28:00,26.0,21.0,29.73,North,355,4.0,10.0,81,0.00,,,0.08,Wunderground v.1.15,2013-01-31 15:28:00,
2013-01-31 10:33:00,26.2,20.9,29.74,NNW,334,3.0,20.0,80,0.00,,,0.08,Wunderground v.1.15,2013-01-31 15:33:00,
2013-01-31 10:38:00,26.2,20.3,29.74,WSW,238,6.0,20.0,78,0.00,,,0.08,Wunderground v.1.15,2013-01-31 15:38:00,
2013-01-31 10:43:00,26.3,20.7,29.75,NNW,338,7.0,20.0,79,0.00,,,0.08,Wunderground v.1.15,2013-01-31 15:43:00,
2013-01-31 10:50:00,26.6,20.7,29.74,NNW,331,6.0,20.0,78,0.00,,,0.08,Wunderground v.1.15,2013-01-31 15:50:00,
2013-01-31 10:56:00,26.7,20.5,29.74,North,355,7.0,20.0,77,0.00,,,0.08,Wunderground v.1.15,2013-01-31 15:56:00,
2013-01-31 11:01:00,26.7,20.5,29.75,North,360,7.0,7.0,77,0.00,,,0.08,Wunderground v.1.15,2013-01-31 16:01:00,
2013-01-31 11:06:00,26.6,20.4,29.75,NW,306,6.0,7.0,77,0.00,,,0.08,Wunderground v.1.15,2013-01-31 16:06:00,
2013-01-31 11:12:00,26.6,20.1,29.76,NW,313,5.0,21.0,76,0.00,,,0.08,Wunderground v.1.15,2013-01-31 16:12:00,
2013-01-31 11:17:00,26.5,19.6,29.76,NNW,344,7.0,21.0,75,0.00,,,0.08,Wunderground v.1.15,2013-01-31 16:17:00,
2013-01-31 11:22:00,26.9,20.0,29.76,NW,316,8.0,22.0,75,0.00,,,0.08,Wunderground v.1.15,2013-01-31 16:22:00,
2013-01-31 11:28:00,27.0,19.8,29.76,SSE,159,7.0,22.0,74,0.00,,,0.08,Wunderground v.1.15,2013-01-31 16:28:00,
2013-01-31 11:33:00,27.1,19.6,29.76,SSW,198,6.0,21.0,73,0.00,,,0.08,Wunderground v.1.15,2013-01-31 16:33:00,
2013-01-31 11:38:00,27.3,19.5,29.76,North,11,5.0,21.0,72,0.00,,,0.08,Wunderground v.1.15,2013-01-31 16:38:00,
2013-01-31 11:44:00,27.8,19.9,29.76,SSE,153,6.0,21.0,72,0.00,,,0.08,Wunderground v.1.15,2013-01-31 16:44:00,
2013-01-31 11:49:00,27.9,20.0,29.76,West,273,6.0,21.0,72,0.00,,,0.08,Wunderground v.1.15,2013-01-31 16:49:00,
2013-01-31 11:54:00,27.9,20.7,29.76,West,269,6.0,21.0,74,0.00,,,0.08,Wunderground v.1.15,2013-01-31 16:54:00,
2013-01-31 12:00:00,27.8,20.3,29.76,NW,325,6.0,21.0,73,0.00,,,0.08,Wunderground v.1.15,2013-01-31 17:00:00,
2013-01-31 12:05:00,27.7,20.5,29.76,NNW,329,5.0,8.0,74,0.00,,,0.08,Wunderground v.1.15,2013-01-31 17:05:00,
2013-01-31 12:10:00,27.8,20.6,29.76,South,173,5.0,5.0,74,0.00,,,0.08,Wunderground v.1.15,2013-01-31 17:10:00,
2013-01-31 12:16:00,27.8,20.6,29.76,North,360,6.0,7.0,74,0.00,,,0.08,Wunderground v.1.15,2013-01-31 17:16:00,
2013-01-31 12:21:00,27.9,21.0,29.76,West,276,5.0,5.0,75,0.00,,,0.08,Wunderground v.1.15,2013-01-31 17:21:00,
2013-01-31 12:26:00,27.9,20.7,29.76,WNW,285,5.0,6.0,74,0.00,,,0.08,Wunderground v.1.15,2013-01-31 17:26:00,
2013-01-31 12:31:00,27.9,20.7,29.76,South,184,4.0,26.0,74,0.00,,,0.08,Wunderground v.1.15,2013-01-31 17:31:00,
2013-01-31 12:37:00,27.8,20.9,29.76,ESE,115,5.0,26.0,75,0.00,,,0.08,Wunderground v.1.15,2013-01-31 17:37:00,
2013-01-31 12:42:00,27.9,20.7,29.76,South,177,6.0,26.0,74,0.00,,,0.08,Wunderground v.1.15,2013-01-31 17:42:00,
2013-01-31 12:48:00,27.9,21.0,29.76,WNW,299,6.0,26.0,75,0.00,,,0.08,Wunderground v.1.15,2013-01-31 17:48:00,
2013-01-31 12:53:00,27.8,21.2,29.77,NNW,344,6.0,26.0,76,0.00,,,0.08,Wunderground v.1.15,2013-01-31 17:53:00,
2013-01-31 12:59:00,26.5,22.6,29.77,North,355,6.0,26.0,85,0.00,,,0.08,Wunderground v.1.15,2013-01-31 17:59:00,
2013-01-31 13:04:00,25.9,22.6,29.77,North,5,5.0,7.0,87,0.00,,,0.08,Wunderground v.1.15,2013-01-31 18:04:00,
2013-01-31 13:10:00,26.0,22.9,29.77,NNW,339,5.0,9.0,88,0.00,,,0.08,Wunderground v.1.15,2013-01-31 18:10:00,
2013-01-31 13:15:00,26.3,22.7,29.77,NNW,336,5.0,9.0,86,0.00,,,0.08,Wunderground v.1.15,2013-01-31 18:15:00,
2013-01-31 13:20:00,26.3,22.7,29.77,WNW,293,6.0,10.0,86,0.00,,,0.08,Wunderground v.1.15,2013-01-31 18:20:00,
2013-01-31 13:25:00,25.9,22.0,29.77,NW,315,6.0,10.0,85,0.00,,,0.08,Wunderground v.1.15,2013-01-31 18:25:00,
2013-01-31 13:30:00,25.7,22.1,29.77,NW,319,5.0,5.0,86,0.00,,,0.08,Wunderground v.1.15,2013-01-31 18:30:00,
2013-01-31 13:35:00,25.7,22.1,29.78,SW,220,5.0,20.0,86,0.00,,,0.08,Wunderground v.1.15,2013-01-31 18:35:00,
2013-01-31 13:41:00,26.0,21.8,29.78,WSW,243,4.0,4.0,84,0.00,,,0.08,Wunderground v.1.15,2013-01-31 18:41:00,
2013-01-31 13:46:00,26.1,21.6,29.78,NW,317,4.0,20.0,83,0.00,,,0.08,Wunderground v.1.15,2013-01-31 18:46:00,
2013-01-31 13:51:00,26.0,21.3,29.79,WNW,290,5.0,7.0,82,0.00,,,0.08,Wunderground v.1.15,2013-01-31 18:51:00,
2013-01-31 13:56:00,25.3,20.9,29.79,NW,321,7.0,20.0,83,0.00,,,0.08,Wunderground v.1.15,2013-01-31 18:56:00,
2013-01-31 14:01:00,24.9,21.0,29.79,NNW,336,6.0,6.0,85,0.00,,,0.08,Wunderground v.1.15,2013-01-31 19:01:00,
2013-01-31 14:07:00,24.4,21.1,29.79,North,355,6.0,8.0,87,0.00,,,0.08,Wunderground v.1.15,2013-01-31 19:07:00,
2013-01-31 14:12:00,24.9,20.5,29.80,WNW,296,7.0,7.0,83,0.00,,,0.08,Wunderground v.1.15,2013-01-31 19:12:00,
2013-01-31 14:18:00,26.1,18.9,29.80,NNE,15,6.0,10.0,74,0.00,,,0.08,Wunderground v.1.15,2013-01-31 19:18:00,
2013-01-31 14:23:00,26.7,18.6,29.81,NNE,17,6.0,7.0,71,0.00,,,0.08,Wunderground v.1.15,2013-01-31 19:23:00,
2013-01-31 14:30:00,26.6,17.5,29.80,WSW,248,7.0,11.0,68,0.00,,,0.08,Wunderground v.1.15,2013-01-31 19:30:00,
2013-01-31 14:35:00,26.3,17.8,29.81,North,355,7.0,15.0,70,0.00,,,0.08,Wunderground v.1.15,2013-01-31 19:35:00,
2013-01-31 14:40:00,26.2,19.0,29.82,NW,326,6.0,6.0,74,0.00,,,0.08,Wunderground v.1.15,2013-01-31 19:40:00,
2013-01-31 14:45:00,26.0,19.2,29.82,NW,323,6.0,15.0,75,0.00,,,0.08,Wunderground v.1.15,2013-01-31 19:45:00,
2013-01-31 14:50:00,25.7,18.2,29.83,SSE,163,5.0,15.0,73,0.00,,,0.08,Wunderground v.1.15,2013-01-31 19:50:00,
2013-01-31 14:55:00,25.4,17.6,29.83,NNW,344,6.0,15.0,72,0.00,,,0.08,Wunderground v.1.15,2013-01-31 19:55:00,
2013-01-31 15:01:00,25.1,15.7,29.83,NNW,336,7.0,15.0,67,0.00,,,0.08,Wunderground v.1.15,2013-01-31 20:01:00,
2013-01-31 15:06:00,25.1,15.3,29.83,WNW,298,7.0,15.0,66,0.00,,,0.08,Wunderground v.1.15,2013-01-31 20:06:00,
2013-01-31 15:11:00,25.2,15.1,29.84,NW,326,7.0,7.0,65,0.00,,,0.08,Wunderground v.1.15,2013-01-31 20:11:00,
2013-01-31 15:16:00,25.4,15.3,29.84,NW,304,5.0,7.0,65,0.00,,,0.08,Wunderground v.1.15,2013-01-31 20:16:00,
2013-01-31 15:22:00,25.4,15.3,29.85,NNW,337,5.0,5.0,65,0.00,,,0.08,Wunderground v.1.15,2013-01-31 20:22:00,
2013-01-31 15:27:00,25.4,14.9,29.85,NW,326,5.0,8.0,64,0.00,,,0.08,Wunderground v.1.15,2013-01-31 20:27:00,
2013-01-31 15:32:00,25.3,15.2,29.85,West,271,4.0,22.0,65,0.00,,,0.08,Wunderground v.1.15,2013-01-31 20:32:00,
2013-01-31 15:38:00,25.2,14.7,29.85,East,100,4.0,22.0,64,0.00,,,0.08,Wunderground v.1.15,2013-01-31 20:38:00,
2013-01-31 15:43:00,25.4,15.3,29.85,NNW,342,4.0,22.0,65,0.00,,,0.08,Wunderground v.1.15,2013-01-31 20:43:00,
2013-01-31 15:48:00,25.7,15.6,29.85,NNW,338,5.0,22.0,65,0.00,,,0.08,Wunderground v.1.15,2013-01-31 20:48:00,
2013-01-31 15:53:00,25.8,15.3,29.86,SSW,206,5.0,22.0,64,0.00,,,0.08,Wunderground v.1.15,2013-01-31 20:53:00,
2013-01-31 15:58:00,25.8,15.3,29.86,ENE,69,5.0,22.0,64,0.00,,,0.08,Wunderground v.1.15,2013-01-31 20:58:00,
2013-01-31 16:05:00,25.7,15.2,29.86,WNW,302,7.0,8.0,64,0.00,,,0.08,Wunderground v.1.15,2013-01-31 21:05:00,
2013-01-31 16:10:00,25.7,15.2,29.86,ENE,66,5.0,5.0,64,0.00,,,0.08,Wunderground v.1.15,2013-01-31 21:10:00,
2013-01-31 16:15:00,25.7,15.2,29.86,SSE,163,4.0,8.0,64,0.00,,,0.08,Wunderground v.1.15,2013-01-31 21:15:00,
2013-01-31 16:20:00,25.8,15.6,29.86,SE,146,3.0,3.0,65,0.00,,,0.08,Wunderground v.1.15,2013-01-31 21:20:00,
2013-01-31 16:25:00,25.8,15.3,29.87,SW,214,2.0,5.0,64,0.00,,,0.08,Wunderground v.1.15,2013-01-31 21:25:00,
2013-01-31 16:31:00,25.7,15.6,29.87,WSW,242,4.0,4.0,65,0.00,,,0.08,Wunderground v.1.15,2013-01-31 21:31:00,
2013-01-31 16:36:00,25.6,16.5,29.87,NW,314,4.0,13.0,68,0.00,,,0.08,Wunderground v.1.15,2013-01-31 21:36:00,
2013-01-31 16:41:00,25.2,17.4,29.87,WNW,286,6.0,6.0,72,0.00,,,0.08,Wunderground v.1.15,2013-01-31 21:41:00,
2013-01-31 16:46:00,25.1,17.3,29.87,NNW,330,5.0,13.0,72,0.00,,,0.08,Wunderground v.1.15,2013-01-31 21:46:00,
2013-01-31 16:51:00,24.9,16.8,29.87,WSW,238,2.0,13.0,71,0.00,,,0.08,Wunderground v.1.15,2013-01-31 21:51:00,
2013-01-31 16:56:00,24.8,16.7,29.87,SSE,148,2.0,13.0,71,0.00,,,0.08,Wunderground v.1.15,2013-01-31 21:56:00,
2013-01-31 17:02:00,24.8,16.4,29.87,SE,131,1.0,2.0,70,0.00,,,0.08,Wunderground v.1.15,2013-01-31 22:02:00,
2013-01-31 17:07:00,24.8,16.4,29.87,WNW,283,1.0,3.0,70,0.00,,,0.08,Wunderground v.1.15,2013-01-31 22:07:00,
2013-01-31 17:13:00,25.0,16.3,29.87,SSE,163,2.0,5.0,69,0.00,,,0.08,Wunderground v.1.15,2013-01-31 22:13:00,
2013-01-31 17:18:00,25.2,15.8,29.87,SSW,211,4.0,9.0,67,0.00,,,0.08,Wunderground v.1.15,2013-01-31 22:18:00,
2013-01-31 17:23:00,25.4,16.0,29.87,SSE,160,4.0,8.0,67,0.00,,,0.08,Wunderground v.1.15,2013-01-31 22:23:00,
2013-01-31 17:28:00,25.4,15.6,29.87,NW,325,3.0,8.0,66,0.00,,,0.08,Wunderground v.1.15,2013-01-31 22:28:00,
2013-01-31 17:33:00,25.6,15.8,29.87,South,184,3.0,17.0,66,0.00,,,0.08,Wunderground v.1.15,2013-01-31 22:33:00,
2013-01-31 17:38:00,25.6,15.8,29.87,North,355,3.0,17.0,66,0.00,,,0.08,Wunderground v.1.15,2013-01-31 22:38:00,
2013-01-31 17:43:00,25.5,15.7,29.87,WNW,302,3.0,17.0,66,0.00,,,0.08,Wunderground v.1.15,2013-01-31 22:43:00,
2013-01-31 17:50:00,25.5,15.4,29.87,SE,136,2.0,17.0,65,0.00,,,0.08,Wunderground v.1.15,2013-01-31 22:50:00,
2013-01-31 17:55:00,25.3,15.2,29.87,WNW,295,3.0,17.0,65,0.00,,,0.08,Wunderground v.1.15,2013-01-31 22:55:00,
2013-01-31 18:00:00,25.3,15.2,29.87,NE,38,3.0,17.0,65,0.00,,,0.08,Wunderground v.1.15,2013-01-31 23:00:00,
2013-01-31 18:05:00,25.2,15.1,29.87,East,87,2.0,17.0,65,0.00,,,0.08,Wunderground v.1.15,2013-01-31 23:05:00,
2013-01-31 18:10:00,25.2,15.1,29.87,South,180,3.0,3.0,65,0.00,,,0.08,Wunderground v.1.15,2013-01-31 23:10:00,
2013-01-31 18:15:00,25.2,15.4,29.87,SSE,165,3.0,8.0,66,0.00,,,0.08,Wunderground v.1.15,2013-01-31 23:15:00,
2013-01-31 18:21:00,25.1,15.3,29.87,ESE,113,3.0,3.0,66,0.00,,,0.08,Wunderground v.1.15,2013-01-31 23:21:00,
2013-01-31 18:26:00,25.1,15.3,29.88,South,173,2.0,5.0,66,0.00,,,0.08,Wunderground v.1.15,2013-01-31 23:26:00,
2013-01-31 18:31:00,25.0,15.6,29.88,East,86,2.0,3.0,67,0.00,,,0.08,Wunderground v.1.15,2013-01-31 23:31:00,
2013-01-31 18:36:00,24.9,15.1,29.88,ESE,108,2.0,14.0,66,0.00,,,0.08,Wunderground v.1.15,2013-01-31 23:36:00,
2013-01-31 18:41:00,24.9,15.1,29.88,SSE,149,2.0,14.0,66,0.00,,,0.08,Wunderground v.1.15,2013-01-31 23:41:00,
2013-01-31 18:47:00,24.8,15.4,29.88,East,93,2.0,14.0,67,0.00,,,0.08,Wunderground v.1.15,2013-01-31 23:47:00,
2013-01-31 18:52:00,24.8,15.0,29.88,South,169,2.0,14.0,66,0.00,,,0.08,Wunderground v.1.15,2013-01-31 23:52:00,
2013-01-31 18:57:00,24.8,15.4,29.88,SSW,192,3.0,14.0,67,0.00,,,0.08,Wunderground v.1.15,2013-01-31 23:57:00,
2013-01-31 19:02:00,24.8,15.4,29.88,SSE,159,3.0,4.0,67,0.00,,,0.08,Wunderground v.1.15,2013-02-01 00:02:00,
2013-01-31 19:07:00,24.8,15.7,29.88,SSE,150,3.0,4.0,68,0.00,,,0.08,Wunderground v.1.15,2013-02-01 00:07:00,
2013-01-31 19:13:00,24.8,15.4,29.89,NNW,345,3.0,3.0,67,0.00,,,0.08,Wunderground v.1.15,2013-02-01 00:13:00,
2013-01-31 19:18:00,24.9,15.5,29.89,SSE,155,3.0,5.0,67,0.00,,,0.08,Wunderground v.1.15,2013-02-01 00:18:00,
2013-01-31 19:23:00,24.9,15.8,29.89,SE,143,3.0,7.0,68,0.00,,,0.08,Wunderground v.1.15,2013-02-01 00:23:00,
2013-01-31 19:28:00,25.1,16.0,29.89,SE,138,4.0,7.0,68,0.00,,,0.08,Wunderground v.1.15,2013-02-01 00:28:00,
2013-01-31 19:33:00,25.2,16.1,29.88,SSW,196,4.0,11.0,68,0.00,,,0.08,Wunderground v.1.15,2013-02-01 00:33:00,
2013-01-31 19:39:00,25.2,16.1,29.88,South,172,4.0,11.0,68,0.00,,,0.08,Wunderground v.1.15,2013-02-01 00:39:00,
2013-01-31 19:45:00,25.2,16.1,29.89,South,169,3.0,11.0,68,0.00,,,0.08,Wunderground v.1.15,2013-02-01 00:45:00,
2013-01-31 19:50:00,25.2,16.1,29.89,South,185,2.0,2.0,68,0.00,,,0.08,Wunderground v.1.15,2013-02-01 00:50:00,
2013-01-31 19:55:00,25.1,16.4,29.89,WNW,299,2.0,11.0,69,0.00,,,0.08,Wunderground v.1.15,2013-02-01 00:55:00,
2013-01-31 20:01:00,25.0,16.3,29.89,SE,144,2.0,2.0,69,0.00,,,0.08,Wunderground v.1.15,2013-02-01 01:01:00,
2013-01-31 20:06:00,25.0,16.3,29.89,WSW,242,2.0,5.0,69,0.00,,,0.08,Wunderground v.1.15,2013-02-01 01:06:00,
2013-01-31 20:11:00,25.0,16.3,29.89,North,11,2.0,3.0,69,0.00,,,0.08,Wunderground v.1.15,2013-02-01 01:11:00,
2013-01-31 20:16:00,25.0,16.3,29.89,SE,144,2.0,5.0,69,0.00,,,0.08,Wunderground v.1.15,2013-02-01 01:16:00,
2013-01-31 20:22:00,24.9,16.5,29.89,ESE,105,2.0,2.0,70,0.00,,,0.08,Wunderground v.1.15,2013-02-01 01:22:00,
2013-01-31 20:27:00,24.9,16.5,29.90,South,174,1.0,4.0,70,0.00,,,0.08,Wunderground v.1.15,2013-02-01 01:27:00,
2013-01-31 20:32:00,24.9,16.5,29.89,SE,131,2.0,13.0,70,0.00,,,0.08,Wunderground v.1.15,2013-02-01 01:32:00,
2013-01-31 20:38:00,25.0,16.6,29.89,SSE,157,2.0,13.0,70,0.00,,,0.08,Wunderground v.1.15,2013-02-01 01:38:00,
2013-01-31 20:44:00,25.1,16.7,29.90,WNW,298,1.0,13.0,70,0.00,,,0.08,Wunderground v.1.15,2013-02-01 01:44:00,
2013-01-31 20:51:00,25.1,17.0,29.90,South,178,2.0,13.0,71,0.00,,,0.08,Wunderground v.1.15,2013-02-01 01:51:00,
2013-01-31 20:56:00,25.1,17.0,29.90,SSE,161,2.0,13.0,71,0.00,,,0.08,Wunderground v.1.15,2013-02-01 01:56:00,
2013-01-31 21:01:00,25.2,17.4,29.90,SSW,202,2.0,2.0,72,0.00,,,0.08,Wunderground v.1.15,2013-02-01 02:01:00,
2013-01-31 21:06:00,25.2,17.8,29.90,SSE,152,2.0,3.0,73,0.00,,,0.08,Wunderground v.1.15,2013-02-01 02:06:00,
2013-01-31 21:11:00,25.2,17.8,29.90,SSE,154,2.0,6.0,73,0.00,,,0.08,Wunderground v.1.15,2013-02-01 02:11:00,
2013-01-31 21:16:00,25.3,17.9,29.90,SE,140,2.0,6.0,73,0.00,,,0.08,Wunderground v.1.15,2013-02-01 02:16:00,
2013-01-31 21:21:00,25.3,17.9,29.90,South,176,3.0,6.0,73,0.00,,,0.08,Wunderground v.1.15,2013-02-01 02:21:00,
2013-01-31 21:26:00,25.4,18.3,29.90,SE,133,4.0,6.0,74,0.00,,,0.08,Wunderground v.1.15,2013-02-01 02:26:00,
2013-01-31 21:31:00,25.4,18.3,29.90,ESE,123,2.0,7.0,74,0.00,,,0.08,Wunderground v.1.15,2013-02-01 02:31:00,
2013-01-31 21:37:00,25.4,18.3,29.90,South,187,1.0,7.0,74,0.00,,,0.08,Wunderground v.1.15,2013-02-01 02:37:00,
2013-01-31 21:43:00,25.4,18.3,29.90,SE,128,2.0,7.0,74,0.00,,,0.08,Wunderground v.1.15,2013-02-01 02:43:00,
2013-01-31 21:49:00,25.5,18.4,29.90,SE,129,2.0,7.0,74,0.00,,,0.08,Wunderground v.1.15,2013-02-01 02:49:00,
2013-01-31 21:55:00,25.4,18.6,29.90,South,169,3.0,7.0,75,0.00,,,0.08,Wunderground v.1.15,2013-02-01 02:55:00,
2013-01-31 22:00:00,25.4,18.6,29.90,South,170,3.0,7.0,75,0.00,,,0.08,Wunderground v.1.15,2013-02-01 03:00:00,
2013-01-31 22:05:00,25.4,18.9,29.90,SE,144,3.0,7.0,76,0.00,,,0.08,Wunderground v.1.15,2013-02-01 03:05:00,
2013-01-31 22:10:00,25.2,19.0,29.90,SSW,200,2.0,2.0,77,0.00,,,0.08,Wunderground v.1.15,2013-02-01 03:10:00,
2013-01-31 22:15:00,25.1,18.9,29.90,South,175,2.0,6.0,77,0.00,,,0.08,Wunderground v.1.15,2013-02-01 03:15:00,
2013-01-31 22:20:00,25.0,19.1,29.90,South,174,3.0,4.0,78,0.00,,,0.08,Wunderground v.1.15,2013-02-01 03:20:00,
2013-01-31 22:25:00,24.9,19.0,29.89,NNE,25,3.0,4.0,78,0.00,,,0.08,Wunderground v.1.15,2013-02-01 03:25:00,
2013-01-31 22:31:00,24.8,19.2,29.89,SW,225,1.0,2.0,79,0.00,,,0.08,Wunderground v.1.15,2013-02-01 03:31:00,
2013-01-31 22:36:00,24.7,19.1,29.90,SSE,152,1.0,11.0,79,0.00,,,0.08,Wunderground v.1.15,2013-02-01 03:36:00,
2013-01-31 22:41:00,24.7,19.4,29.90,SE,141,2.0,11.0,80,0.00,,,0.08,Wunderground v.1.15,2013-02-01 03:41:00,
2013-01-31 22:46:00,24.7,19.4,29.90,SSE,163,2.0,11.0,80,0.00,,,0.08,Wunderground v.1.15,2013-02-01 03:46:00,
2013-01-31 22:51:00,24.7,19.7,29.90,SSE,163,1.0,11.0,81,0.00,,,0.08,Wunderground v.1.15,2013-02-01 03:51:00,
2013-01-31 22:56:00,24.7,19.7,29.90,East,80,1.0,11.0,81,0.00,,,0.08,Wunderground v.1.15,2013-02-01 03:56:00,
2013-01-31 23:01:00,24.8,19.8,29.90,ESE,123,1.0,11.0,81,0.00,,,0.08,Wunderground v.1.15,2013-02-01 04:01:00,
2013-01-31 23:06:00,24.8,20.1,29.89,ESE,122,1.0,11.0,82,0.00,,,0.08,Wunderground v.1.15,2013-02-01 04:06:00,
2013-01-31 23:11:00,24.8,20.4,29.89,North,355,1.0,3.0,83,0.00,,,0.08,Wunderground v.1.15,2013-02-01 04:11:00,
2013-01-31 23:16:00,24.8,20.4,29.89,North,10,1.0,3.0,83,0.00,,,0.08,Wunderground v.1.15,2013-02-01 04:16:00,
2013-01-31 23:21:00,24.8,20.4,29.89,SW,234,1.0,1.0,83,0.00,,,0.08,Wunderground v.1.15,2013-02-01 04:21:00,
2013-01-31 23:26:00,24.8,20.4,29.89,South,183,1.0,1.0,83,0.00,,,0.08,Wunderground v.1.15,2013-02-01 04:26:00,
2013-01-31 23:31:00,24.8,20.7,29.89,NW,318,1.0,2.0,84,0.00,,,0.08,Wunderground v.1.15,2013-02-01 04:31:00,
2013-01-31 23:36:00,24.8,20.9,29.88,NNE,22,1.0,7.0,85,0.00,,,0.08,Wunderground v.1.15,2013-02-01 04:36:00,
2013-01-31 23:41:00,24.6,21.0,29.88,NW,306,2.0,7.0,86,0.00,,,0.08,Wunderground v.1.15,2013-02-01 04:41:00,
2013-01-31 23:46:00,24.5,21.2,29.88,NW,325,3.0,7.0,87,0.00,,,0.08,Wunderground v.1.15,2013-02-01 04:46:00,
2013-01-31 23:52:00,24.5,21.2,29.87,NW,325,2.0,7.0,87,0.00,,,0.08,Wunderground v.1.15,2013-02-01 04:52:00,
2013-01-31 23:57:00,24.5,21.5,29.88,NW,325,1.0,7.0,88,0.00,,,0.08,Wunderground v.1.15,2013-02-01 04:57:00,